CheckWX is a tool to help pilots better visualize weather data.  It is not intended as a substitute for an official pre-flight weather briefing.

15:02:41 UTC

ENKB TAF
Kristiansund , Kvernberget Airport
Kvernberget, Norway
TAF ENKB 231100Z 2312/2316 24025G40KT 9999 -SHRA FEW015TCU BKN025 TEMPO 2312/2316 25038G55KT SHRA BKN015CB PROB40 TEMPO 2312/2316 4000 TSGS

Mar-23@
12:00 UTC

Mar-23 @ 12:00 UTC

Mar-23@
16:00 UTC

Mar-23 @ 16:00 UTC

TAF ENKB 231100Z 2312/2316 24025G40KT 9999 -SHRA FEW015TCU BKN025
Wind
  • 240° at 25 KTS
  • {Gusting to 40 KTS
Conditions
Light Rain
Cloud Levels
  • Few at 1,500' AGL
  • Broken at 2,500' AGL

Mar-23@
12:00 UTC

Mar-23 @ 12:00 UTC

Mar-23@
16:00 UTC

Mar-23 @ 16:00 UTC

TEMPO 2312/2316 25038G55KT SHRA BKN015CB

Temporary

Temporary Changes expected for less than half the time period

Wind
  • 250° at 38 KTS
  • {Gusting to 55 KTS
Conditions
Rain
Cloud Levels
  • Broken at 1,500' AGL

Mar-23@
12:00 UTC

Mar-23 @ 12:00 UTC

Mar-23@
16:00 UTC

Mar-23 @ 16:00 UTC

PROB40 TEMPO 2312/2316 4000 TSGS

Temporary - 40% Likelihood

Temporary - 40% Likelihood during this time.

Conditions
Thunderstorm, Small hail